Time;durP1;ratioP1;P1;durP2;ratioP2;P2;SDS_P1;SDS_P2;PMS_P1;PMS_P2;Temp;Humidity;BMP_temperature;BMP_pressure;BME280_temperature;BME280_humidity;BME280_pressure;Samples;Min_cycle;Max_cycle;Signal;HPM_P1;HPM_P2
2023/03/11 00:01:07;;;;;;;18.73;16.05;;;3.20;1.00;;;;;;5141248;27;20237;-79
2023/03/11 00:03:34;;;;;;;20.20;14.20;;;3.30;1.00;;;;;;5131446;27;20302;-80
2023/03/11 00:06:02;;;;;;;18.30;14.48;;;3.30;1.00;;;;;;5134764;27;20295;-80
2023/03/11 00:08:30;;;;;;;19.10;14.68;;;3.20;1.00;;;;;;5135288;27;20249;-79
2023/03/11 00:10:59;;;;;;;17.38;14.80;;;3.20;1.00;;;;;;5137595;27;20253;-80
2023/03/11 00:13:30;;;;;;;17.73;14.88;;;3.20;1.00;;;;;;5131152;27;20237;-79
2023/03/11 00:15:58;;;;;;;19.80;14.98;;;3.10;1.00;;;;;;5139295;27;20308;-81
2023/03/11 00:18:28;;;;;;;17.60;14.55;;;3.00;1.00;;;;;;5135742;27;20330;-81
2023/03/11 00:20:57;;;;;;;16.50;14.50;;;2.90;1.00;;;;;;5136807;27;20238;-78
2023/03/11 00:23:25;;;;;;;15.68;13.98;;;2.80;1.00;;;;;;5137435;27;21061;-80
2023/03/11 00:25:52;;;;;;;17.05;14.20;;;2.80;1.00;;;;;;5138010;27;20320;-79
2023/03/11 00:28:21;;;;;;;24.85;21.05;;;2.60;1.00;;;;;;5138603;27;20234;-79
2023/03/11 00:30:49;;;;;;;19.55;16.15;;;2.60;1.00;;;;;;5137424;27;20235;-79
2023/03/11 00:33:16;;;;;;;17.17;13.25;;;2.40;1.00;;;;;;5135548;27;20769;-79
2023/03/11 00:35:44;;;;;;;18.30;13.63;;;2.30;1.00;;;;;;5133527;27;21492;-79
2023/03/11 00:38:15;;;;;;;16.17;13.35;;;2.20;1.00;;;;;;5134549;27;20725;-79
2023/03/11 00:40:43;;;;;;;14.82;12.85;;;2.10;1.00;;;;;;5136135;27;20614;-80
2023/03/11 00:43:10;;;;;;;15.23;13.07;;;2.00;1.00;;;;;;5140604;27;20272;-79
2023/03/11 00:45:37;;;;;;;17.73;13.68;;;1.90;1.00;;;;;;5131777;27;20229;-80
2023/03/11 00:48:07;;;;;;;14.23;11.77;;;1.90;1.00;;;;;;5137321;27;20334;-80
2023/03/11 00:50:36;;;;;;;15.73;12.70;;;1.90;1.00;;;;;;5134571;27;20388;-80
2023/03/11 00:53:03;;;;;;;15.30;11.20;;;1.80;1.00;;;;;;5137859;27;20242;-80
2023/03/11 00:55:33;;;;;;;12.85;11.55;;;1.70;1.00;;;;;;5137625;27;20261;-80
2023/03/11 00:58:01;;;;;;;12.82;10.60;;;1.70;1.00;;;;;;5136059;27;20341;-80
2023/03/11 01:00:30;;;;;;;13.65;12.25;;;1.70;1.00;;;;;;5140907;27;20328;-80
2023/03/11 01:02:57;;;;;;;13.20;11.25;;;1.70;1.00;;;;;;5136360;27;21169;-80
2023/03/11 01:05:29;;;;;;;13.25;11.60;;;1.60;1.00;;;;;;5135586;27;20316;-81
2023/03/11 01:07:56;;;;;;;14.20;12.20;;;1.60;1.00;;;;;;5139244;27;20230;-80
2023/03/11 01:10:23;;;;;;;15.13;12.85;;;1.60;1.00;;;;;;5135713;27;20800;-80
2023/03/11 01:12:50;;;;;;;14.70;13.10;;;1.60;1.00;;;;;;5132577;27;20241;-80
2023/03/11 01:15:21;;;;;;;15.90;13.13;;;1.50;1.00;;;;;;5114623;27;21240;-79
2023/03/11 01:17:48;;;;;;;16.50;13.00;;;1.50;1.00;;;;;;5132341;27;20810;-79
2023/03/11 01:20:16;;;;;;;16.80;14.45;;;1.50;1.00;;;;;;5139660;27;20230;-80
2023/03/11 01:22:44;;;;;;;14.93;13.40;;;1.50;1.00;;;;;;5141461;27;20306;-80
2023/03/11 01:25:13;;;;;;;15.93;14.13;;;1.50;1.00;;;;;;5140060;27;20302;-80
2023/03/11 01:27:40;;;;;;;17.40;14.15;;;1.50;1.00;;;;;;5139312;27;20781;-80
2023/03/11 01:30:09;;;;;;;16.35;14.18;;;1.40;1.00;;;;;;5141520;27;20311;-80
2023/03/11 01:32:36;;;;;;;16.83;13.82;;;1.40;1.00;;;;;;5131886;27;20341;-79
2023/03/11 01:35:02;;;;;;;17.83;15.15;;;1.40;1.00;;;;;;5141845;27;20253;-80
2023/03/11 01:37:30;;;;;;;17.30;13.45;;;1.40;1.00;;;;;;5136919;27;20254;-79
2023/03/11 01:39:58;;;;;;;16.83;14.32;;;1.40;1.00;;;;;;5136767;27;20230;-79
2023/03/11 01:42:25;;;;;;;18.23;15.75;;;1.40;1.00;;;;;;5136757;27;20238;-79
2023/03/11 01:44:52;;;;;;;17.80;14.43;;;1.30;1.00;;;;;;5138130;27;20329;-79
2023/03/11 01:47:34;;;;;;;15.07;12.82;;;1.40;1.00;;;;;;5136253;27;21109;-81
2023/03/11 01:50:01;;;;;;;15.18;12.75;;;1.30;1.00;;;;;;5138118;27;20528;-80
2023/03/11 01:52:29;;;;;;;14.15;11.95;;;1.40;1.00;;;;;;5136894;27;20325;-80
2023/03/11 01:54:56;;;;;;;14.18;11.30;;;1.30;1.00;;;;;;5139281;27;20323;-80
2023/03/11 01:57:24;;;;;;;10.90;9.45;;;1.40;1.00;;;;;;5144510;27;20234;-80
2023/03/11 01:59:58;;;;;;;10.68;8.95;;;1.30;1.00;;;;;;5143796;27;20300;-80
2023/03/11 02:02:32;;;;;;;10.55;9.45;;;1.30;1.00;;;;;;5141870;27;20710;-78
2023/03/11 02:05:03;;;;;;;9.85;7.80;;;1.30;1.00;;;;;;5138486;27;20230;-78
2023/03/11 02:07:30;;;;;;;9.07;7.40;;;1.30;1.00;;;;;;5136916;27;20294;-78
2023/03/11 02:09:57;;;;;;;7.13;6.43;;;1.30;1.00;;;;;;5134240;27;20337;-77
2023/03/11 02:12:28;;;;;;;7.03;6.30;;;1.30;1.00;;;;;;5138652;27;20249;-77
2023/03/11 02:14:55;;;;;;;6.70;5.78;;;1.40;1.00;;;;;;5139733;27;20242;-78
2023/03/11 02:17:22;;;;;;;4.68;4.15;;;1.40;1.00;;;;;;5137307;27;20812;-79
2023/03/11 02:20:06;;;;;;;4.45;4.05;;;1.40;1.00;;;;;;5136444;27;20345;-78
2023/03/11 02:22:33;;;;;;;4.40;3.50;;;1.40;1.00;;;;;;5136689;27;20237;-77
2023/03/11 02:25:08;;;;;;;3.55;3.05;;;1.40;1.00;;;;;;5141924;27;20902;-77
2023/03/11 02:27:41;;;;;;;3.35;2.65;;;1.40;1.00;;;;;;5138342;27;20290;-78
2023/03/11 02:30:10;;;;;;;3.75;2.70;;;1.40;1.00;;;;;;5135100;27;20241;-77
2023/03/11 02:32:38;;;;;;;3.22;2.60;;;1.40;1.00;;;;;;5138154;27;20241;-76
2023/03/11 02:35:07;;;;;;;3.53;2.60;;;1.40;1.00;;;;;;5135232;27;20234;-78
2023/03/11 02:37:34;;;;;;;2.58;2.17;;;1.50;1.00;;;;;;5134511;27;20246;-80
2023/03/11 02:40:35;;;;;;;4.38;3.30;;;1.40;1.00;;;;;;5137799;27;20368;-79
2023/03/11 02:43:07;;;;;;;2.60;2.40;;;1.40;1.00;;;;;;5136291;27;20240;-78
2023/03/11 02:45:36;;;;;;;2.55;2.10;;;1.40;1.00;;;;;;5132899;27;20287;-78
2023/03/11 02:48:04;;;;;;;3.30;2.47;;;1.40;1.00;;;;;;5137220;27;20240;-79
2023/03/11 02:50:33;;;;;;;2.95;2.65;;;1.40;1.00;;;;;;5135980;27;20293;-77
2023/03/11 02:53:00;;;;;;;3.17;2.88;;;1.40;1.00;;;;;;5137760;27;20262;-77
2023/03/11 02:55:27;;;;;;;3.45;3.15;;;1.40;1.00;;;;;;5136006;27;21039;-76
2023/03/11 02:57:54;;;;;;;3.88;2.78;;;1.40;1.00;;;;;;5139610;27;20239;-79
2023/03/11 03:00:23;;;;;;;3.55;2.90;;;1.50;1.00;;;;;;5135053;27;20230;-79
2023/03/11 03:02:51;;;;;;;3.03;2.72;;;1.40;1.00;;;;;;5135076;27;20239;-78
2023/03/11 03:05:19;;;;;;;3.20;2.40;;;1.40;1.00;;;;;;5140169;27;20249;-81
2023/03/11 03:07:47;;;;;;;3.10;2.58;;;1.50;1.00;;;;;;5137162;27;20235;-80
2023/03/11 03:10:15;;;;;;;3.13;2.83;;;1.40;1.00;;;;;;5139161;27;20242;-81
2023/03/11 03:12:42;;;;;;;3.25;2.95;;;1.40;1.00;;;;;;5131812;27;21026;-81
2023/03/11 03:15:11;;;;;;;2.92;2.63;;;1.50;1.00;;;;;;5138805;27;20303;-80
2023/03/11 03:17:42;;;;;;;4.53;4.13;;;1.50;1.00;;;;;;5140350;27;20305;-81
2023/03/11 03:20:12;;;;;;;3.10;2.80;;;1.40;1.00;;;;;;5137810;27;20234;-80
2023/03/11 03:22:39;;;;;;;3.42;3.13;;;1.40;1.00;;;;;;5135526;27;20233;-80
2023/03/11 03:25:08;;;;;;;3.92;2.70;;;1.40;1.00;;;;;;5135929;27;20780;-80
2023/03/11 03:27:35;;;;;;;4.20;3.55;;;1.40;1.00;;;;;;5136284;27;20237;-80
2023/03/11 03:30:02;;;;;;;6.35;3.63;;;1.50;1.00;;;;;;5138775;27;20739;-80
2023/03/11 03:32:31;;;;;;;3.72;3.33;;;1.50;1.00;;;;;;5139352;27;20244;-80
2023/03/11 03:34:59;;;;;;;4.82;3.25;;;1.50;1.00;;;;;;5136405;27;20705;-80
2023/03/11 03:37:27;;;;;;;4.75;3.72;;;1.40;1.00;;;;;;5138831;27;20241;-80
2023/03/11 03:39:54;;;;;;;4.85;4.35;;;1.40;1.00;;;;;;5136133;27;20270;-79
2023/03/11 03:42:23;;;;;;;4.97;3.95;;;1.40;1.00;;;;;;5138262;27;20938;-80
2023/03/11 03:44:51;;;;;;;6.00;4.03;;;1.40;1.00;;;;;;5142252;27;20238;-81
2023/03/11 03:47:18;;;;;;;3.95;3.55;;;1.30;1.00;;;;;;5134507;27;20264;-80
2023/03/11 03:49:45;;;;;;;4.88;4.07;;;1.30;1.00;;;;;;5140428;27;20257;-80
2023/03/11 03:52:13;;;;;;;4.25;3.72;;;1.20;1.00;;;;;;5136512;27;20238;-80
2023/03/11 03:54:41;;;;;;;5.13;4.35;;;1.20;1.00;;;;;;5145073;27;20759;-80
2023/03/11 03:57:07;;;;;;;3.55;3.25;;;1.20;1.00;;;;;;5153171;27;20242;-80
2023/03/11 03:59:34;;;;;;;4.25;3.80;;;1.30;1.00;;;;;;5137253;27;20231;-80
2023/03/11 04:02:01;;;;;;;6.30;4.22;;;1.30;1.00;;;;;;5135814;27;20350;-80
2023/03/11 04:04:29;;;;;;;5.07;4.57;;;1.30;1.00;;;;;;5139875;27;20238;-80
2023/03/11 04:06:56;;;;;;;4.78;4.05;;;1.20;1.00;;;;;;5134032;27;20235;-80
2023/03/11 04:09:25;;;;;;;7.05;5.05;;;1.30;1.00;;;;;;5137737;27;20889;-81
2023/03/11 04:11:52;;;;;;;7.15;4.60;;;1.30;1.00;;;;;;5135248;27;20235;-80
2023/03/11 04:14:20;;;;;;;7.35;5.30;;;1.30;1.00;;;;;;5130684;27;20245;-80
2023/03/11 04:16:47;;;;;;;5.75;5.15;;;1.30;1.00;;;;;;5140513;27;20317;-80
2023/03/11 04:19:14;;;;;;;6.60;5.00;;;1.30;1.00;;;;;;5133367;27;21053;-79
2023/03/11 04:21:41;;;;;;;6.55;4.80;;;1.30;1.00;;;;;;5138652;27;20739;-79
2023/03/11 04:24:08;;;;;;;7.50;5.07;;;1.30;1.00;;;;;;5140922;27;20272;-79
2023/03/11 04:26:37;;;;;;;5.40;4.90;;;1.40;1.00;;;;;;5140607;27;20301;-79
2023/03/11 04:29:04;;;;;;;5.70;4.90;;;1.30;1.00;;;;;;5140011;27;20329;-79
2023/03/11 04:31:31;;;;;;;6.60;4.90;;;1.30;1.00;;;;;;5135210;27;20234;-79
2023/03/11 04:33:58;;;;;;;5.75;4.93;;;1.30;1.00;;;;;;5137224;27;20330;-78
2023/03/11 04:36:24;;;;;;;6.38;5.72;;;1.30;1.00;;;;;;5140465;27;20373;-79
2023/03/11 04:38:51;;;;;;;7.05;5.30;;;1.40;1.00;;;;;;5141501;27;20328;-79
2023/03/11 04:41:18;;;;;;;6.88;5.13;;;1.40;1.00;;;;;;5132400;27;20265;-79
2023/03/11 04:43:47;;;;;;;5.00;4.25;;;1.40;1.00;;;;;;5132239;27;20697;-79
2023/03/11 04:46:14;;;;;;;6.30;5.05;;;1.40;1.00;;;;;;5133458;27;20242;-78
2023/03/11 04:48:41;;;;;;;6.05;5.43;;;1.40;1.00;;;;;;5132097;27;20262;-78
2023/03/11 04:51:10;;;;;;;6.15;4.93;;;1.40;1.00;;;;;;5133871;27;20290;-79
2023/03/11 04:53:37;;;;;;;5.75;5.00;;;1.40;1.00;;;;;;5137179;27;20230;-79
2023/03/11 04:56:04;;;;;;;5.85;4.30;;;1.40;1.00;;;;;;5131484;27;20333;-79
2023/03/11 04:58:31;;;;;;;5.13;4.20;;;1.40;1.00;;;;;;5139641;27;20268;-80
2023/03/11 05:00:59;;;;;;;6.75;4.45;;;1.40;1.00;;;;;;5135242;27;20291;-80
2023/03/11 05:03:26;;;;;;;8.65;7.60;;;1.40;1.00;;;;;;5126075;27;20230;-80
2023/03/11 05:05:55;;;;;;;5.80;4.72;;;1.40;1.00;;;;;;5128947;27;20301;-79
2023/03/11 05:08:22;;;;;;;5.30;4.50;;;1.40;1.00;;;;;;5131138;27;20233;-81
2023/03/11 05:10:51;;;;;;;5.75;4.97;;;1.40;1.00;;;;;;5138697;27;20238;-79
2023/03/11 05:13:21;;;;;;;4.35;3.83;;;1.40;1.00;;;;;;5134802;27;20233;-80
2023/03/11 05:15:48;;;;;;;5.00;3.90;;;1.40;1.00;;;;;;5135903;27;20230;-79
2023/03/11 05:18:17;;;;;;;4.50;3.65;;;1.40;1.00;;;;;;5137786;27;20238;-80
2023/03/11 05:20:47;;;;;;;5.47;4.50;;;1.40;1.00;;;;;;5133380;27;20988;-80
2023/03/11 05:23:14;;;;;;;5.20;4.70;;;1.50;1.00;;;;;;5135726;27;20668;-80
2023/03/11 05:25:40;;;;;;;4.70;4.20;;;1.50;1.00;;;;;;5144918;27;20229;-80
2023/03/11 05:28:07;;;;;;;6.50;4.80;;;1.50;1.00;;;;;;5136525;27;20250;-80
2023/03/11 05:30:34;;;;;;;5.13;4.63;;;1.50;1.00;;;;;;5135859;27;21099;-80
2023/03/11 05:33:03;;;;;;;5.65;4.57;;;1.40;1.00;;;;;;5133970;27;20242;-80
2023/03/11 05:35:31;;;;;;;6.35;4.30;;;1.40;1.00;;;;;;5142445;27;20328;-79
2023/03/11 05:37:58;;;;;;;5.53;4.97;;;1.40;1.00;;;;;;5134873;27;20292;-80
2023/03/11 05:40:25;;;;;;;5.05;4.55;;;1.40;1.00;;;;;;5137679;27;20324;-80
2023/03/11 05:42:52;;;;;;;4.53;4.03;;;1.50;1.00;;;;;;5136760;27;20329;-79
2023/03/11 05:45:19;;;;;;;4.85;3.97;;;1.50;1.00;;;;;;5136938;27;20245;-81
2023/03/11 05:47:48;;;;;;;5.07;4.57;;;1.50;1.00;;;;;;5137877;27;21119;-79
2023/03/11 05:50:14;;;;;;;4.88;4.38;;;1.50;1.00;;;;;;5142033;27;20303;-79
2023/03/11 05:52:47;;;;;;;6.43;4.18;;;1.50;1.00;;;;;;5136110;27;20312;-79
2023/03/11 05:55:14;;;;;;;4.47;4.03;;;1.50;1.00;;;;;;5133995;27;20324;-79
2023/03/11 05:57:40;;;;;;;4.22;3.65;;;1.60;1.00;;;;;;5135391;27;20964;-79
2023/03/11 06:00:11;;;;;;;4.60;4.10;;;1.60;1.00;;;;;;5136419;27;20230;-80
2023/03/11 06:02:40;;;;;;;4.88;4.32;;;1.60;1.00;;;;;;5137213;27;20283;-81
2023/03/11 06:05:10;;;;;;;4.95;4.45;;;1.60;1.00;;;;;;5141487;27;20295;-80
2023/03/11 06:07:38;;;;;;;5.10;4.20;;;1.60;1.00;;;;;;5139134;27;20230;-81
2023/03/11 06:10:08;;;;;;;5.40;4.28;;;1.60;1.00;;;;;;5143743;27;21082;-80
2023/03/11 06:12:37;;;;;;;6.38;5.78;;;1.50;1.00;;;;;;5140718;27;20237;-80
2023/03/11 06:15:05;;;;;;;6.95;5.10;;;1.60;1.00;;;;;;5144778;27;20744;-80
2023/03/11 06:17:32;;;;;;;4.47;4.00;;;1.60;1.00;;;;;;5142991;27;20237;-80
2023/03/11 06:19:59;;;;;;;5.40;4.50;;;1.60;1.00;;;;;;5145447;27;20231;-80
2023/03/11 06:22:26;;;;;;;4.65;4.07;;;1.60;1.00;;;;;;5140755;27;20284;-79
2023/03/11 06:24:53;;;;;;;5.85;4.88;;;1.60;1.00;;;;;;5138259;27;20713;-79
2023/03/11 06:27:24;;;;;;;8.20;5.10;;;1.60;1.00;;;;;;5141582;27;20288;-79
2023/03/11 06:29:53;;;;;;;7.45;5.10;;;1.60;1.00;;;;;;5135894;27;20242;-78
2023/03/11 06:32:20;;;;;;;6.68;4.90;;;1.60;1.00;;;;;;5135256;27;20236;-79
2023/03/11 06:34:51;;;;;;;6.53;5.10;;;1.60;1.00;;;;;;5138034;27;20230;-79
2023/03/11 06:37:22;;;;;;;6.82;5.55;;;1.60;1.00;;;;;;5135438;27;21041;-80
2023/03/11 06:39:53;;;;;;;6.32;5.72;;;1.60;1.00;;;;;;5137216;27;20257;-78
2023/03/11 06:42:22;;;;;;;6.40;5.55;;;1.60;1.00;;;;;;5137128;27;20331;-79
2023/03/11 06:44:50;;;;;;;6.70;5.63;;;1.70;1.00;;;;;;5139453;27;20235;-77
2023/03/11 06:47:20;;;;;;;7.90;5.65;;;1.70;1.00;;;;;;5147024;27;20239;-81
2023/03/11 06:49:47;;;;;;;6.32;5.72;;;1.60;1.00;;;;;;5136451;27;21099;-79
2023/03/11 06:52:14;;;;;;;8.88;6.13;;;1.50;1.00;;;;;;5127103;27;21085;-82
2023/03/11 06:54:41;;;;;;;7.97;6.10;;;1.50;1.00;;;;;;5133353;27;20234;-79
2023/03/11 06:57:09;;;;;;;7.10;5.45;;;1.60;1.00;;;;;;5138547;27;20230;-79
2023/03/11 06:59:38;;;;;;;6.40;5.70;;;1.60;1.00;;;;;;5141856;27;20318;-79
2023/03/11 07:02:06;;;;;;;5.95;5.35;;;1.50;1.00;;;;;;5138274;27;20283;-79
2023/03/11 07:04:33;;;;;;;6.93;6.22;;;1.50;1.00;;;;;;5141024;27;20230;-79
2023/03/11 07:07:00;;;;;;;6.70;6.10;;;1.50;1.00;;;;;;5140302;27;20861;-77
2023/03/11 07:09:28;;;;;;;8.02;6.00;;;1.50;1.00;;;;;;5138638;27;20815;-79
2023/03/11 07:11:55;;;;;;;8.50;5.57;;;1.60;1.00;;;;;;5135710;27;20914;-79
2023/03/11 07:14:22;;;;;;;8.43;6.38;;;1.60;1.00;;;;;;5136039;27;21924;-79
2023/03/11 07:16:51;;;;;;;6.20;5.60;;;1.60;1.00;;;;;;5137659;27;20385;-79
2023/03/11 07:19:18;;;;;;;8.60;7.35;;;1.60;1.00;;;;;;5139216;27;20269;-81
2023/03/11 07:21:45;;;;;;;8.52;6.25;;;1.60;1.00;;;;;;5140565;27;20629;-78
2023/03/11 07:24:13;;;;;;;8.02;5.63;;;1.50;1.00;;;;;;5139962;27;20332;-78
2023/03/11 07:26:41;;;;;;;8.20;6.50;;;1.60;1.00;;;;;;5137535;27;20241;-77
2023/03/11 07:29:08;;;;;;;6.35;5.72;;;1.70;1.00;;;;;;5141139;27;20307;-78
2023/03/11 07:31:36;;;;;;;7.20;5.85;;;1.90;1.00;;;;;;5137629;27;20265;-79
2023/03/11 07:34:10;;;;;;;8.48;7.03;;;2.00;1.00;;;;;;5138277;27;20347;-79
2023/03/11 07:36:39;;;;;;;7.63;5.60;;;2.10;1.00;;;;;;5144858;27;20245;-80
2023/03/11 07:39:13;;;;;;;7.32;6.20;;;2.00;1.00;;;;;;5147816;27;20226;-80
2023/03/11 07:41:40;;;;;;;7.35;6.28;;;1.90;1.00;;;;;;5138642;27;20339;-78
2023/03/11 07:44:07;;;;;;;7.40;6.60;;;1.90;1.00;;;;;;5143303;27;20995;-80
2023/03/11 07:46:34;;;;;;;8.55;6.65;;;1.80;1.00;;;;;;5146033;27;20238;-81
2023/03/11 07:49:02;;;;;;;8.40;6.85;;;1.80;1.00;;;;;;5146022;27;20241;-79
2023/03/11 07:51:32;;;;;;;7.75;6.32;;;1.80;1.00;;;;;;5128633;27;20316;-81
2023/03/11 07:54:01;;;;;;;8.80;7.18;;;1.90;1.00;;;;;;5142942;27;20677;-79
2023/03/11 07:56:30;;;;;;;7.65;6.38;;;1.90;1.00;;;;;;5142207;27;20315;-79
2023/03/11 07:58:58;;;;;;;6.57;5.90;;;2.00;1.00;;;;;;5136131;27;20287;-81
2023/03/11 08:01:29;;;;;;;7.97;5.90;;;2.10;1.00;;;;;;5140680;27;20245;-79
2023/03/11 08:03:57;;;;;;;6.80;6.10;;;2.20;1.00;;;;;;5144986;27;20998;-80
2023/03/11 08:06:26;;;;;;;7.85;6.93;;;2.20;1.00;;;;;;5141985;27;20265;-82
2023/03/11 08:08:54;;;;;;;6.38;5.78;;;2.30;1.00;;;;;;5131062;27;20238;-78
2023/03/11 08:11:21;;;;;;;7.35;5.80;;;2.30;1.00;;;;;;5135518;27;20333;-79
2023/03/11 08:13:49;;;;;;;7.63;6.82;;;2.40;1.00;;;;;;5136194;27;21199;-78
2023/03/11 08:16:18;;;;;;;9.02;6.30;;;2.50;1.00;;;;;;5144176;27;20328;-78
2023/03/11 08:18:47;;;;;;;8.35;6.88;;;2.60;1.00;;;;;;5140591;27;20257;-77
2023/03/11 08:21:16;;;;;;;7.97;6.68;;;2.60;1.00;;;;;;5139990;27;20260;-77
2023/03/11 08:23:43;;;;;;;10.80;8.00;;;2.70;1.00;;;;;;5138101;27;20230;-77
2023/03/11 08:26:14;;;;;;;7.65;6.53;;;2.70;1.00;;;;;;5140944;27;20229;-76
2023/03/11 08:28:41;;;;;;;7.60;6.65;;;2.90;1.00;;;;;;5136954;27;20245;-77
2023/03/11 08:31:14;;;;;;;9.85;6.95;;;2.90;1.00;;;;;;5139583;27;20975;-79
2023/03/11 08:33:42;;;;;;;7.80;5.97;;;2.90;1.00;;;;;;5142744;27;20335;-79
2023/03/11 08:36:09;;;;;;;7.90;6.75;;;3.00;1.00;;;;;;5139180;27;20280;-80
2023/03/11 08:38:36;;;;;;;7.85;6.68;;;2.90;1.00;;;;;;5146986;27;20234;-80
2023/03/11 08:41:03;;;;;;;7.43;6.63;;;2.90;1.00;;;;;;5148307;27;20312;-79
2023/03/11 08:43:31;;;;;;;7.20;6.50;;;3.10;1.00;;;;;;5142927;27;20262;-77
2023/03/11 08:46:00;;;;;;;7.28;6.57;;;3.40;1.00;;;;;;5130301;27;20298;-79
2023/03/11 08:48:27;;;;;;;7.88;7.07;;;3.60;1.00;;;;;;5140983;27;20302;-77
2023/03/11 08:50:55;;;;;;;6.93;6.32;;;3.60;1.00;;;;;;5137011;27;20229;-76
2023/03/11 08:53:23;;;;;;;6.85;6.15;;;3.60;1.00;;;;;;5144925;27;20230;-76
2023/03/11 08:55:52;;;;;;;7.00;6.28;;;3.50;1.00;;;;;;5137743;27;20238;-75
2023/03/11 08:58:20;;;;;;;6.65;6.05;;;3.60;1.00;;;;;;5137033;27;20259;-75
2023/03/11 09:00:53;;;;;;;6.28;5.68;;;3.70;1.00;;;;;;5134377;27;20266;-77
2023/03/11 09:03:20;;;;;;;7.88;6.30;;;3.80;1.00;;;;;;5141919;27;20296;-75
2023/03/11 09:05:46;;;;;;;6.82;5.63;;;4.20;1.00;;;;;;5139523;27;20791;-76
2023/03/11 09:08:13;;;;;;;6.90;5.88;;;4.60;1.00;;;;;;5129944;27;20262;-78
2023/03/11 09:10:40;;;;;;;6.80;5.82;;;4.50;1.00;;;;;;5135452;27;20230;-77
2023/03/11 09:13:07;;;;;;;6.68;5.80;;;4.20;1.00;;;;;;5135690;27;20238;-78
2023/03/11 09:15:37;;;;;;;6.38;5.22;;;4.10;1.00;;;;;;5135454;27;20234;-78
2023/03/11 09:18:07;;;;;;;6.43;5.75;;;3.80;1.00;;;;;;5141134;27;20230;-76
2023/03/11 09:20:39;;;;;;;7.38;6.28;;;3.90;1.00;;;;;;5136313;27;20237;-78
2023/03/11 09:23:06;;;;;;;7.82;6.20;;;4.30;1.00;;;;;;5135206;27;20230;-78
2023/03/11 09:25:33;;;;;;;8.95;6.07;;;4.40;1.00;;;;;;5130068;27;20329;-77
2023/03/11 09:28:00;;;;;;;6.95;5.18;;;4.60;1.00;;;;;;5137317;27;21096;-77
2023/03/11 09:30:27;;;;;;;6.65;5.97;;;4.70;1.00;;;;;;5137586;27;20238;-77
2023/03/11 09:32:54;;;;;;;6.97;4.97;;;5.10;1.00;;;;;;5134012;27;20292;-78
2023/03/11 09:35:23;;;;;;;6.00;5.38;;;4.90;1.00;;;;;;5144449;27;20674;-77
2023/03/11 09:37:50;;;;;;;11.20;6.70;;;4.60;1.00;;;;;;5132649;27;20242;-77
2023/03/11 09:40:20;;;;;;;8.98;6.32;;;4.60;1.00;;;;;;5138604;27;20238;-77
2023/03/11 09:42:54;;;;;;;6.25;5.65;;;4.40;1.00;;;;;;5134897;27;20320;-78
2023/03/11 09:45:24;;;;;;;8.35;5.85;;;4.20;1.00;;;;;;5140493;27;20328;-77
2023/03/11 09:48:09;;;;;;;6.22;5.35;;;4.10;1.00;;;;;;5142451;27;20321;-76
2023/03/11 09:50:44;;;;;;;8.40;5.95;;;4.10;1.00;;;;;;5140508;27;20316;-78
2023/03/11 09:53:22;;;;;;;6.45;5.65;;;4.20;1.00;;;;;;5138311;27;20615;-78
2023/03/11 09:55:52;;;;;;;7.47;5.82;;;4.30;1.00;;;;;;5131959;27;20246;-78
2023/03/11 09:58:29;;;;;;;9.07;6.38;;;4.50;1.00;;;;;;5138756;27;20242;-78
2023/03/11 10:00:57;;;;;;;7.15;6.45;;;4.70;1.00;;;;;;5130077;27;20237;-76
2023/03/11 10:03:31;;;;;;;6.85;6.15;;;4.60;1.00;;;;;;5141506;27;20237;-78
2023/03/11 10:06:15;;;;;;;6.05;5.45;;;4.90;1.00;;;;;;5135694;27;20238;-77
2023/03/11 10:08:57;;;;;;;7.40;6.65;;;6.00;1.00;;;;;;5138026;27;20287;-79
2023/03/11 10:11:44;;;;;;;5.57;5.07;;;6.10;1.00;;;;;;5132873;27;20344;-77
2023/03/11 10:14:21;;;;;;;7.95;5.40;;;5.60;1.00;;;;;;5128692;27;20272;-78
2023/03/11 10:17:00;;;;;;;6.00;5.20;;;5.00;1.00;;;;;;5129594;27;20291;-77
2023/03/11 10:19:36;;;;;;;6.15;5.13;;;4.50;1.00;;;;;;5133682;27;20234;-76
2023/03/11 10:22:16;;;;;;;7.22;5.70;;;4.40;1.00;;;;;;5129353;27;20233;-77
2023/03/11 10:25:05;;;;;;;5.85;4.72;;;4.40;1.00;;;;;;5135305;27;20229;-76
2023/03/11 10:27:40;;;;;;;6.05;5.13;;;4.40;1.00;;;;;;5124417;27;20243;-76
2023/03/11 10:30:13;;;;;;;6.15;5.25;;;5.20;1.00;;;;;;5132380;27;20281;-76
2023/03/11 10:32:44;;;;;;;8.45;6.85;;;5.30;1.00;;;;;;5134486;27;20310;-77
2023/03/11 10:35:18;;;;;;;6.90;6.20;;;5.40;1.00;;;;;;5132762;27;20241;-75
2023/03/11 10:37:53;;;;;;;7.07;6.40;;;6.00;1.00;;;;;;5132794;27;20238;-76
2023/03/11 10:40:26;;;;;;;6.50;5.82;;;5.70;1.00;;;;;;5135191;27;20308;-79
2023/03/11 10:42:56;;;;;;;7.35;6.63;;;5.20;1.00;;;;;;5155551;27;21006;-78
2023/03/11 10:45:23;;;;;;;7.35;6.63;;;5.00;1.00;;;;;;5149642;27;20705;-80
2023/03/11 10:47:50;;;;;;;7.45;6.60;;;5.40;1.00;;;;;;5149505;27;20238;-81
2023/03/11 10:50:19;;;;;;;7.55;6.57;;;5.60;1.00;;;;;;5141315;27;20249;-78
2023/03/11 10:53:05;;;;;;;7.22;6.53;;;5.20;1.00;;;;;;5143481;27;20234;-79
2023/03/11 10:55:33;;;;;;;6.25;5.65;;;5.00;1.00;;;;;;5148375;27;20314;-78
2023/03/11 10:58:06;;;;;;;6.72;5.78;;;4.70;1.00;;;;;;5143342;27;21072;-78
2023/03/11 11:00:33;;;;;;;6.22;5.43;;;4.50;1.00;;;;;;5147065;27;20233;-79
2023/03/11 11:03:03;;;;;;;8.30;7.15;;;4.40;1.00;;;;;;5149879;27;20238;-79
2023/03/11 11:05:32;;;;;;;6.40;5.80;;;4.30;1.00;;;;;;5146290;27;20237;-79
2023/03/11 11:08:14;;;;;;;8.82;6.50;;;4.30;1.00;;;;;;5145920;27;20233;-80
2023/03/11 11:10:51;;;;;;;7.25;6.55;;;4.30;1.00;;;;;;5145495;27;21099;-80
2023/03/11 11:13:20;;;;;;;7.70;7.00;;;4.30;1.00;;;;;;5146186;27;20234;-79
2023/03/11 11:15:59;;;;;;;6.20;5.63;;;4.30;1.00;;;;;;5141247;27;20230;-80
2023/03/11 11:18:29;;;;;;;7.68;6.90;;;4.40;1.00;;;;;;5147480;27;20910;-80
2023/03/11 11:21:00;;;;;;;7.88;7.07;;;4.80;1.00;;;;;;5143352;27;20269;-80
2023/03/11 11:23:42;;;;;;;8.60;7.35;;;5.80;1.00;;;;;;5145640;27;20321;-79
2023/03/11 11:26:17;;;;;;;9.10;6.93;;;5.60;1.00;;;;;;5147967;27;20311;-79
2023/03/11 11:28:44;;;;;;;8.15;7.13;;;4.80;1.00;;;;;;5151126;27;21033;-81
2023/03/11 11:31:24;;;;;;;8.05;7.25;;;4.50;1.00;;;;;;5145107;27;20254;-80
2023/03/11 11:33:52;;;;;;;8.98;8.02;;;4.40;1.00;;;;;;5144690;27;20237;-79
2023/03/11 11:36:23;;;;;;;9.25;8.27;;;4.70;1.00;;;;;;5144809;27;20237;-79
2023/03/11 11:38:53;;;;;;;9.15;7.97;;;4.90;1.00;;;;;;5140566;27;20247;-79
2023/03/11 11:41:23;;;;;;;8.25;7.45;;;5.20;1.00;;;;;;5147918;27;20238;-79
2023/03/11 11:43:52;;;;;;;9.05;8.15;;;5.70;1.00;;;;;;5147037;27;20280;-79
2023/03/11 11:46:24;;;;;;;8.13;7.32;;;5.70;1.00;;;;;;5148834;27;20233;-79
2023/03/11 11:49:00;;;;;;;9.45;8.50;;;5.50;1.00;;;;;;5145829;27;20238;-80
2023/03/11 11:51:32;;;;;;;11.13;8.93;;;5.40;1.00;;;;;;5145880;27;20231;-79
2023/03/11 11:54:07;;;;;;;9.13;8.23;;;6.30;1.00;;;;;;5146915;27;20248;-80
2023/03/11 11:56:33;;;;;;;8.48;7.50;;;7.50;1.00;;;;;;5146546;27;20238;-79
2023/03/11 11:59:02;;;;;;;9.23;8.27;;;7.20;1.00;;;;;;5146999;27;20363;-79
2023/03/11 12:01:42;;;;;;;9.90;8.60;;;6.50;1.00;;;;;;5145705;27;20262;-79
2023/03/11 12:04:40;;;;;;;9.40;8.50;;;6.00;1.00;;;;;;5148580;27;20226;-79
2023/03/11 12:07:18;;;;;;;10.05;8.93;;;5.60;1.00;;;;;;5149345;27;20279;-81
2023/03/11 12:09:55;;;;;;;9.85;8.95;;;5.30;1.00;;;;;;5147953;27;21797;-79
2023/03/11 12:12:28;;;;;;;11.38;8.98;;;5.30;1.00;;;;;;5144446;27;20243;-79
2023/03/11 12:15:02;;;;;;;8.27;7.47;;;5.40;1.00;;;;;;5142713;27;20262;-80
2023/03/11 12:17:32;;;;;;;10.60;8.88;;;5.30;1.00;;;;;;5142682;27;20706;-79
2023/03/11 12:20:03;;;;;;;10.18;8.88;;;5.20;1.00;;;;;;5144661;27;20238;-80
2023/03/11 12:22:57;;;;;;;11.70;8.23;;;5.10;1.00;;;;;;5147608;27;20235;-80
2023/03/11 12:25:31;;;;;;;9.13;8.25;;;5.10;1.00;;;;;;5142333;27;20240;-80
2023/03/11 12:28:07;;;;;;;9.07;8.23;;;5.50;1.00;;;;;;5143902;27;20245;-80
2023/03/11 12:30:41;;;;;;;9.63;7.32;;;5.60;1.00;;;;;;5145205;27;20315;-80
2023/03/11 12:33:16;;;;;;;8.50;7.60;;;5.60;1.00;;;;;;5143836;27;20245;-80
2023/03/11 12:35:52;;;;;;;9.30;8.30;;;5.40;1.00;;;;;;5146315;27;20236;-78
2023/03/11 12:38:26;;;;;;;8.60;7.40;;;5.00;1.00;;;;;;5143089;27;20303;-79
2023/03/11 12:41:29;;;;;;;9.05;8.15;;;4.80;1.00;;;;;;5141180;27;20265;-79
2023/03/11 12:44:21;;;;;;;8.82;7.95;;;4.60;1.00;;;;;;5146018;27;20261;-80
2023/03/11 12:47:19;;;;;;;8.52;7.55;;;4.60;1.00;;;;;;5144823;27;20219;-79
2023/03/11 12:49:50;;;;;;;10.88;8.13;;;4.60;1.00;;;;;;5110593;27;20238;-79
2023/03/11 12:52:28;;;;;;;9.38;8.02;;;4.60;1.00;;;;;;5176575;27;20264;-80
2023/03/11 12:55:24;;;;;;;12.10;9.15;;;4.60;1.00;;;;;;5149025;27;20234;-79
2023/03/11 12:58:00;;;;;;;9.13;7.80;;;4.60;1.00;;;;;;5136742;27;20319;-78
2023/03/11 13:00:40;;;;;;;10.30;8.70;;;4.70;1.00;;;;;;5147725;27;21015;-78
2023/03/11 13:03:47;;;;;;;9.27;7.57;;;4.70;1.00;;;;;;5144488;27;20318;-79
2023/03/11 13:06:31;;;;;;;8.93;8.02;;;4.70;1.00;;;;;;5142417;27;20230;-79
2023/03/11 13:08:59;;;;;;;13.07;8.85;;;4.80;1.00;;;;;;5143354;27;20231;-79
2023/03/11 13:11:36;;;;;;;9.43;7.43;;;5.20;1.00;;;;;;5146107;27;20249;-79
2023/03/11 13:14:32;;;;;;;14.60;8.57;;;5.10;1.00;;;;;;5146693;27;20242;-78
2023/03/11 13:17:24;;;;;;;9.20;7.72;;;4.70;1.00;;;;;;5146293;27;20234;-79
2023/03/11 13:19:54;;;;;;;8.82;7.88;;;4.80;1.00;;;;;;5151367;27;20332;-79
2023/03/11 13:22:41;;;;;;;7.80;7.00;;;5.20;1.00;;;;;;5146565;27;20291;-79